Time;durP1;ratioP1;P1;durP2;ratioP2;P2;SDS_P1;SDS_P2;PMS_P1;PMS_P2;Temp;Humidity;BMP_temperature;BMP_pressure;BME280_temperature;BME280_humidity;BME280_pressure;Samples;Min_cycle;Max_cycle;Signal;HPM_P1;HPM_P2
2022/07/09 00:10:43;;;;;;;4.85;4.10;;;;;;;21.13;71.11;96667.06;4963632;28;20289;-70
2022/07/09 00:13:11;;;;;;;4.65;4.25;;;;;;;21.05;71.38;96655.22;4965490;28;20063;-67
2022/07/09 00:15:38;;;;;;;4.50;4.20;;;;;;;21.08;71.59;96702.22;4965205;28;20066;-71
2022/07/09 00:18:05;;;;;;;17.67;4.95;;;;;;;21.17;71.21;96662.88;4965274;28;20051;-70
2022/07/09 00:20:32;;;;;;;4.10;3.80;;;;;;;21.10;71.21;96656.69;4965402;28;20564;-67
2022/07/09 01:40:47;;;;;;;4.20;3.90;;;;;;;19.95;78.63;96610.91;4983085;28;20355;-69
2022/07/09 01:43:15;;;;;;;4.82;4.43;;;;;;;19.98;77.52;96599.53;4986013;28;20054;-67
2022/07/09 01:45:42;;;;;;;5.00;4.38;;;;;;;19.67;77.70;96561.03;4987161;28;20054;-67
2022/07/09 01:48:09;;;;;;;4.50;4.00;;;;;;;19.96;77.94;96624.50;4987196;28;20685;-67
2022/07/09 01:50:36;;;;;;;5.82;4.45;;;;;;;19.91;78.13;96615.81;4969831;28;20149;-70
2022/07/09 02:10:42;;;;;;;4.60;4.00;;;;;;;19.57;76.79;96640.78;5005361;28;20457;-67
2022/07/09 02:13:09;;;;;;;6.00;5.43;;;;;;;19.64;77.17;96634.97;5006343;28;20061;-67
2022/07/09 02:15:36;;;;;;;4.90;4.47;;;;;;;19.62;76.36;96637.47;4988898;28;20081;-70
2022/07/09 02:18:04;;;;;;;4.63;4.22;;;;;;;19.66;75.68;96640.97;5006322;28;20060;-67
2022/07/09 02:20:32;;;;;;;4.80;4.45;;;;;;;19.51;74.47;96603.97;5005598;28;20157;-67
2022/07/09 02:23:32;;;;;;;5.20;4.78;;;;;;;19.85;73.60;96648.50;5006116;28;20054;-67
2022/07/09 03:08:05;;;;;;;5.03;4.32;;;;;;;19.98;69.89;96671.88;5002020;28;20064;-67
2022/07/09 03:10:32;;;;;;;4.18;3.80;;;;;;;19.94;70.03;96671.94;4966213;28;20054;-67
2022/07/09 03:12:59;;;;;;;5.78;3.92;;;;;;;20.04;70.02;96675.72;4985929;28;20065;-71
2022/07/09 03:15:27;;;;;;;4.55;3.95;;;;;;;20.17;69.80;96668.19;4967633;28;20058;-67
2022/07/09 03:17:54;;;;;;;5.35;4.07;;;;;;;19.95;70.15;96639.00;4985730;28;20074;-68
2022/07/09 03:20:21;;;;;;;5.20;4.60;;;;;;;19.99;70.34;96639.69;4985888;28;20062;-70
2022/07/09 03:22:48;;;;;;;10.88;4.90;;;;;;;20.20;71.03;96667.28;4985727;28;20085;-67
2022/07/09 03:25:15;;;;;;;4.45;4.05;;;;;;;20.19;71.03;96668.50;4985601;28;20054;-67
2022/07/09 03:27:43;;;;;;;6.35;4.38;;;;;;;20.21;70.59;96668.88;4985598;28;20580;-67
2022/07/09 03:30:10;;;;;;;4.80;4.50;;;;;;;20.13;70.71;96675.88;4985149;28;20062;-71
2022/07/09 03:32:38;;;;;;;4.65;4.25;;;;;;;20.12;71.22;96679.94;4968173;28;20090;-67
2022/07/09 03:35:05;;;;;;;6.65;4.90;;;;;;;20.30;70.41;96654.94;4968011;28;20078;-67
2022/07/09 03:37:33;;;;;;;4.82;4.43;;;;;;;20.42;69.95;96654.22;4985556;28;20058;-71
2022/07/09 03:40:36;;;;;;;4.20;3.90;;;;;;;20.50;69.08;96653.56;4985170;28;20500;-70
2022/07/09 04:08:17;;;;;;;4.68;4.28;;;;;;;21.11;66.75;96670.31;4991124;28;20630;-70
2022/07/09 04:10:44;;;;;;;7.20;4.60;;;;;;;21.16;63.34;96678.22;4963296;28;20054;-66
2022/07/09 04:13:11;;;;;;;4.90;4.50;;;;;;;21.43;62.43;96670.13;4965526;28;20066;-70
2022/07/09 04:15:40;;;;;;;5.97;4.22;;;;;;;20.24;60.94;96479.50;4965703;28;20154;-67
2022/07/09 04:18:07;;;;;;;4.70;4.18;;;;;;;21.54;60.78;96664.16;4965339;28;20066;-67
2022/07/09 04:20:34;;;;;;;5.55;5.05;;;;;;;21.72;60.51;96665.16;4965549;28;20106;-67
2022/07/09 04:23:01;;;;;;;13.88;7.07;;;;;;;21.81;60.27;96664.50;4948126;28;20065;-70
2022/07/09 04:25:29;;;;;;;5.93;4.75;;;;;;;21.78;59.94;96657.72;4966569;28;20090;-71
2022/07/09 04:27:56;;;;;;;7.22;5.28;;;;;;;22.05;59.37;96665.72;4952408;28;20090;-71
2022/07/09 04:30:22;;;;;;;20.00;8.20;;;;;;;21.78;59.20;96597.75;4969276;28;20437;-71
2022/07/09 04:32:49;;;;;;;13.32;6.40;;;;;;;22.09;59.23;96667.16;4969355;28;20524;-70
2022/07/09 04:35:16;;;;;;;23.30;9.25;;;;;;;21.99;59.66;96671.13;4968936;28;20501;-70
2022/07/09 04:37:44;;;;;;;7.38;5.30;;;;;;;21.95;59.24;96664.03;4952277;28;20497;-67
2022/07/09 04:52:17;;;;;;;;;;;;;;;;;;;;;
2022/07/09 05:06:19;;;;;;;5.03;4.63;;;;;;;22.09;59.62;96661.53;5000852;28;20147;-70
2022/07/09 05:08:50;;;;;;;6.10;4.93;;;;;;;22.18;59.57;96692.66;5007626;28;20707;-67
2022/07/09 05:11:17;;;;;;;8.43;5.28;;;;;;;22.47;58.83;96675.50;4989811;28;20058;-70
2022/07/09 05:13:50;;;;;;;6.15;5.55;;;;;;;22.48;58.92;96665.78;5007961;28;20058;-70
2022/07/09 05:16:23;;;;;;;6.97;5.22;;;;;;;22.75;57.55;96668.88;5007990;28;20094;-70
2022/07/09 05:18:50;;;;;;;5.63;4.63;;;;;;;23.10;57.22;96666.75;5007496;28;20054;-67
2022/07/09 05:22:14;;;;;;;6.25;5.63;;;;;;;22.89;57.52;96661.91;4991516;28;20296;-69
2022/07/09 06:36:06;;;;;;;5.80;5.40;;;;;;;23.96;54.91;96597.84;5002968;28;20072;-69
2022/07/09 06:39:44;;;;;;;8.90;6.75;;;;;;;23.84;53.80;96562.75;5005966;28;20054;-69
2022/07/09 06:41:20;;;;;;;7.38;5.97;;;;;;;23.65;55.63;96595.09;5005752;28;20521;-67
2022/07/09 06:43:46;;;;;;;7.82;6.82;;;;;;;23.81;54.68;96519.22;5005795;28;20488;-66
2022/07/09 06:46:13;;;;;;;5.72;5.35;;;;;;;24.36;54.36;96638.94;5004858;28;20060;-69
2022/07/09 06:48:40;;;;;;;6.35;5.75;;;;;;;24.55;52.94;96589.56;5005813;28;20065;-66
2022/07/09 06:51:07;;;;;;;6.15;5.57;;;;;;;24.98;52.51;96640.22;5005111;28;20058;-69
2022/07/09 06:53:33;;;;;;;7.88;6.63;;;;;;;24.12;53.45;96589.88;5005816;28;20045;-67
2022/07/09 06:56:00;;;;;;;6.75;6.25;;;;;;;23.67;53.17;96507.72;5005597;28;20058;-70
2022/07/09 06:58:27;;;;;;;7.25;6.68;;;;;;;24.62;53.10;96648.72;5005315;28;20057;-66
2022/07/09 07:00:54;;;;;;;7.70;7.00;;;;;;;24.37;53.37;96589.56;4988197;28;20436;-67
2022/07/09 07:03:20;;;;;;;11.18;6.78;;;;;;;24.38;51.98;96528.84;5005457;28;20080;-70
2022/07/09 07:05:47;;;;;;;7.10;6.40;;;;;;;25.17;51.88;96613.41;5005123;28;20516;-70
2022/07/09 07:08:14;;;;;;;14.75;7.82;;;;;;;24.41;51.62;96485.41;5005496;28;20508;-67
2022/07/09 07:10:40;;;;;;;7.50;6.88;;;;;;;24.25;52.29;96584.84;5005259;28;20547;-70
2022/07/09 07:13:10;;;;;;;6.80;6.10;;;;;;;23.81;53.71;96541.06;4987936;28;20062;-67
2022/07/09 07:15:37;;;;;;;7.07;6.47;;;;;;;24.87;52.65;96634.25;5005286;28;20069;-70
2022/07/09 07:18:03;;;;;;;5.90;5.40;;;;;;;23.06;54.51;96485.28;5005361;28;20057;-66
2022/07/09 07:20:30;;;;;;;10.77;8.43;;;;;;;24.27;53.51;96590.03;4987518;28;20108;-66
2022/07/09 07:22:57;;;;;;;6.30;5.80;;;;;;;24.26;52.75;96628.91;5004916;28;20065;-66
2022/07/09 07:25:24;;;;;;;10.18;6.15;;;;;;;23.67;55.23;96627.31;5004918;28;20410;-66
2022/07/09 07:27:52;;;;;;;5.85;5.45;;;;;;;23.94;54.66;96618.13;5005404;28;20079;-67
2022/07/09 07:30:22;;;;;;;9.95;6.32;;;;;;;24.12;54.61;96623.84;5005334;28;20128;-66
2022/07/09 07:36:31;;;;;;;7.35;5.55;;;;;;;24.55;52.73;96634.88;5003733;28;20104;-66
2022/07/09 07:38:58;;;;;;;7.82;5.63;;;;;;;24.47;52.26;96639.28;5004785;28;20085;-69
2022/07/09 08:40:28;;;;;;;7.10;6.43;;;;;;;25.83;46.51;96607.81;4943898;29;20438;-68
2022/07/09 08:43:08;;;;;;;6.93;6.28;;;;;;;26.48;45.69;96653.94;4946189;29;20055;-68
2022/07/09 08:46:03;;;;;;;6.67;5.77;;;;;;;26.22;46.24;96652.06;4867468;29;20092;-67
2022/07/09 08:48:42;;;;;;;7.00;6.30;;;;;;;25.53;47.08;96663.56;4852203;29;20864;-67
2022/07/09 08:51:16;;;;;;;6.57;6.00;;;;;;;25.15;47.99;96666.97;4867565;29;20061;-68
2022/07/09 08:53:44;;;;;;;7.22;6.60;;;;;;;25.58;47.49;96639.44;4928891;29;20557;-68
2022/07/09 08:56:12;;;;;;;6.22;5.68;;;;;;;26.00;46.34;96629.66;4946099;29;20520;-68
2022/07/09 08:58:42;;;;;;;8.65;5.50;;;;;;;26.01;46.22;96630.41;4945946;29;20556;-70
2022/07/09 09:01:14;;;;;;;6.78;6.28;;;;;;;25.80;46.56;96642.81;4945707;29;20066;-71
2022/07/09 09:03:42;;;;;;;9.40;6.27;;;;;;;26.00;46.80;96635.34;4945841;29;20741;-70
2022/07/09 09:06:12;;;;;;;6.65;6.00;;;;;;;26.22;46.07;96640.72;4945829;29;20075;-70
2022/07/09 11:53:21;;;;;;;;;;;;;;;;;;;;;
2022/07/09 12:10:39;;;;;;;6.78;6.25;;;;;;;27.80;39.65;96516.16;4872910;29;20059;-68
2022/07/09 12:13:35;;;;;;;6.38;6.00;;;;;;;26.96;39.80;96523.88;4849601;29;20136;-71
2022/07/09 12:16:15;;;;;;;7.22;6.65;;;;;;;27.04;40.50;96487.28;4867970;29;20079;-70
2022/07/09 12:18:51;;;;;;;7.80;7.20;;;;;;;27.52;40.96;96523.50;4870778;29;20058;-70
2022/07/09 12:21:19;;;;;;;8.75;6.65;;;;;;;28.29;40.63;96528.69;4870654;29;20071;-71
2022/07/09 12:23:51;;;;;;;6.53;6.05;;;;;;;28.35;40.16;96532.41;4854434;29;20068;-71
2022/07/09 12:26:19;;;;;;;7.07;6.57;;;;;;;28.57;40.34;96529.81;4870218;29;20487;-71
2022/07/09 12:28:46;;;;;;;9.63;7.00;;;;;;;27.24;40.83;96439.78;4870993;29;20440;-68
2022/07/09 12:31:16;;;;;;;7.80;6.10;;;;;;;27.30;41.29;96548.75;4870393;29;20540;-70
2022/07/09 12:34:44;;;;;;;7.25;6.75;;;;;;;27.19;41.97;96531.50;4813067;29;20574;-68
2022/07/09 12:37:14;;;;;;;6.47;6.05;;;;;;;26.91;42.60;96498.97;4824480;29;20068;-71
2022/07/09 13:04:41;;;;;;;5.68;5.32;;;;;;;26.39;44.52;96536.75;4891626;29;20147;-71
2022/07/09 13:10:50;;;;;;;6.32;5.82;;;;;;;25.83;46.45;96523.44;4833932;29;20058;-71
2022/07/09 13:40:36;;;;;;;6.35;5.95;;;;;;;26.90;45.10;96508.78;4870202;29;20493;-71
2022/07/09 13:43:03;;;;;;;7.38;6.88;;;;;;;26.43;46.10;96517.47;4863875;29;20057;-70
2022/07/09 13:45:31;;;;;;;7.05;6.65;;;;;;;26.76;45.09;96526.63;4873517;29;20108;-68
2022/07/09 13:47:58;;;;;;;6.95;6.45;;;;;;;27.00;45.13;96518.75;4873049;29;20556;-71
2022/07/09 13:50:34;;;;;;;6.60;6.05;;;;;;;26.38;45.67;96472.69;4851514;29;20473;-68
2022/07/09 13:53:29;;;;;;;6.45;6.00;;;;;;;25.81;47.96;96536.53;4851016;29;20100;-68
2022/07/09 15:24:30;;;;;;;7.05;6.43;;;;;;;25.21;48.34;96471.47;5139884;23;20084;-72
2022/07/09 16:26:09;;;;;;;6.45;5.95;;;;;;;23.59;54.21;96497.97;4873175;29;20060;-69
2022/07/09 16:28:52;;;;;;;6.63;5.70;;;;;;;23.55;53.51;96495.28;4858009;29;20057;-69
2022/07/09 16:31:20;;;;;;;10.77;5.85;;;;;;;23.31;52.99;96428.53;4874824;29;20060;-69
2022/07/09 16:33:47;;;;;;;5.47;4.97;;;;;;;23.24;52.85;96428.78;4874382;29;20069;-71
2022/07/09 16:36:15;;;;;;;7.20;6.60;;;;;;;23.93;53.45;96492.06;4874769;29;20061;-72
2022/07/09 16:38:42;;;;;;;5.78;5.18;;;;;;;22.61;54.45;96347.50;4874407;29;20068;-68
2022/07/09 16:41:09;;;;;;;7.25;5.85;;;;;;;23.48;52.77;96489.97;4874540;29;20068;-69
2022/07/09 16:43:36;;;;;;;5.78;5.38;;;;;;;22.69;51.87;96362.91;4874121;29;20129;-68
2022/07/09 16:46:08;;;;;;;6.60;6.10;;;;;;;23.47;51.49;96453.69;4874626;29;20097;-72
2022/07/09 16:48:40;;;;;;;6.43;5.80;;;;;;;22.74;52.06;96350.19;4874404;29;20143;-68
2022/07/09 16:51:08;;;;;;;6.63;6.03;;;;;;;23.15;51.75;96431.59;4874468;29;20068;-68
2022/07/09 16:53:35;;;;;;;5.63;5.22;;;;;;;23.76;51.39;96502.06;4874406;29;20064;-68
2022/07/09 16:56:02;;;;;;;6.00;5.35;;;;;;;22.96;52.28;96436.41;4874416;29;20124;-68
2022/07/09 16:58:33;;;;;;;7.45;6.50;;;;;;;22.87;52.90;96477.97;4874354;29;20061;-71
2022/07/09 17:01:01;;;;;;;6.50;5.72;;;;;;;22.78;51.23;96404.50;4874316;29;20064;-72
2022/07/09 17:03:28;;;;;;;6.00;5.53;;;;;;;23.76;50.78;96521.88;4874159;29;20060;-68
2022/07/09 17:05:55;;;;;;;25.15;12.10;;;;;;;23.77;51.24;96523.47;4873733;29;20068;-72
2022/07/09 17:08:21;;;;;;;11.95;6.90;;;;;;;23.28;51.21;96435.13;4874156;29;20065;-72
2022/07/09 17:10:48;;;;;;;7.10;6.50;;;;;;;23.67;52.38;96555.81;4874413;29;20069;-69
2022/07/09 17:13:15;;;;;;;6.95;6.30;;;;;;;23.03;51.88;96446.66;4873537;29;20065;-72
2022/07/09 17:15:42;;;;;;;6.40;5.80;;;;;;;23.59;52.04;96540.41;4873765;29;20072;-72
2022/07/09 17:18:09;;;;;;;7.15;6.43;;;;;;;22.07;52.50;96325.47;4873988;29;20068;-72
2022/07/09 17:20:36;;;;;;;7.78;6.40;;;;;;;22.81;52.17;96409.22;4867932;29;20056;-68
2022/07/09 17:23:04;;;;;;;6.75;6.20;;;;;;;23.70;52.50;96549.22;4891416;29;20056;-69
2022/07/09 17:25:31;;;;;;;10.40;6.82;;;;;;;23.41;52.98;96551.69;4892317;29;20056;-68
2022/07/09 17:27:58;;;;;;;7.13;5.60;;;;;;;23.02;53.85;96529.81;4891480;29;20064;-68
2022/07/09 17:30:25;;;;;;;5.68;5.00;;;;;;;22.49;53.39;96416.91;4892513;29;20950;-68
2022/07/09 17:32:56;;;;;;;6.28;5.78;;;;;;;23.27;53.91;96560.72;4891114;29;20543;-71
2022/07/09 17:35:24;;;;;;;5.95;5.20;;;;;;;22.97;54.87;96533.28;4892131;29;20064;-68
2022/07/09 17:37:56;;;;;;;5.55;5.15;;;;;;;22.73;55.40;96509.59;4875565;29;20068;-72
2022/07/09 17:40:26;;;;;;;10.23;7.68;;;;;;;23.09;55.80;96563.44;4892124;29;20459;-71
2022/07/09 17:42:52;;;;;;;6.10;5.60;;;;;;;20.98;56.07;96272.44;4875077;29;20064;-71
2022/07/09 17:45:19;;;;;;;7.28;6.68;;;;;;;22.45;56.86;96520.72;4891624;29;20452;-68
2022/07/09 17:47:46;;;;;;;8.57;6.72;;;;;;;22.48;56.58;96513.34;4892060;29;20072;-72
2022/07/09 17:50:13;;;;;;;6.07;5.55;;;;;;;22.70;55.01;96555.72;4891683;29;20057;-71
2022/07/09 17:52:41;;;;;;;5.80;5.28;;;;;;;22.82;54.54;96577.44;4891900;29;20072;-73
2022/07/09 17:55:21;;;;;;;5.55;5.10;;;;;;;22.86;53.47;96578.88;4891892;29;20460;-69
2022/07/09 17:57:52;;;;;;;10.57;8.27;;;;;;;22.32;54.53;96488.16;4891967;29;20132;-72
2022/07/09 18:00:24;;;;;;;7.72;5.93;;;;;;;21.84;56.00;96452.88;4891720;29;20516;-69
2022/07/09 18:02:51;;;;;;;5.70;5.30;;;;;;;22.18;56.69;96531.81;4891698;29;20060;-68
2022/07/09 18:05:18;;;;;;;5.68;5.28;;;;;;;22.37;58.00;96589.97;4891788;29;20147;-69
2022/07/09 18:07:45;;;;;;;6.30;5.70;;;;;;;22.23;57.15;96547.34;4891686;29;20052;-71
2022/07/09 18:10:12;;;;;;;6.18;5.65;;;;;;;21.82;56.00;96461.00;4891606;29;20061;-71
2022/07/09 18:12:39;;;;;;;6.07;5.45;;;;;;;22.15;55.76;96496.03;4891422;29;20068;-71
2022/07/09 18:15:07;;;;;;;6.95;5.57;;;;;;;22.29;55.21;96537.06;4891263;29;20546;-68
2022/07/09 18:17:34;;;;;;;5.88;5.38;;;;;;;22.80;55.24;96577.09;4891412;29;20560;-68
2022/07/09 18:20:02;;;;;;;5.22;4.82;;;;;;;22.86;54.79;96572.44;4884899;29;20064;-69
2022/07/09 18:22:31;;;;;;;6.85;6.18;;;;;;;22.82;54.70;96588.72;4872467;29;20061;-68
2022/07/09 18:24:58;;;;;;;7.40;6.80;;;;;;;22.73;54.86;96597.91;4872232;29;20068;-71
2022/07/09 18:27:25;;;;;;;6.60;6.00;;;;;;;22.76;54.47;96590.59;4872672;29;20097;-68
2022/07/09 18:29:52;;;;;;;8.48;7.47;;;;;;;22.96;54.34;96599.47;4872592;29;20056;-72
2022/07/09 18:32:19;;;;;;;7.57;6.68;;;;;;;21.38;54.94;96386.06;4872287;29;20056;-71
2022/07/09 18:34:46;;;;;;;5.97;5.47;;;;;;;22.74;54.60;96601.53;4872215;29;20061;-71
2022/07/09 18:37:13;;;;;;;5.78;5.25;;;;;;;21.86;54.54;96489.84;4872297;29;20053;-68
2022/07/09 18:39:39;;;;;;;5.45;5.00;;;;;;;22.71;52.77;96582.69;4872424;29;20186;-68
2022/07/09 18:42:06;;;;;;;6.40;5.90;;;;;;;22.81;52.25;96564.56;4872666;29;20057;-69
2022/07/09 18:44:38;;;;;;;7.35;6.40;;;;;;;23.05;51.61;96613.66;4872447;29;20067;-68
2022/07/09 18:47:06;;;;;;;12.90;7.97;;;;;;;22.40;53.39;96529.78;4872479;29;20076;-71
2022/07/09 18:49:34;;;;;;;10.98;8.35;;;;;;;23.09;53.43;96605.84;4872126;29;20116;-68
2022/07/09 18:52:02;;;;;;;6.53;5.88;;;;;;;22.91;54.51;96623.47;4872115;29;20116;-68
2022/07/09 18:54:28;;;;;;;5.00;4.65;;;;;;;22.52;54.77;96569.72;4871793;29;20505;-69
2022/07/09 18:56:55;;;;;;;7.07;6.38;;;;;;;23.05;54.99;96630.59;4855447;29;20069;-71
2022/07/09 18:59:22;;;;;;;5.85;5.15;;;;;;;22.03;56.12;96550.50;4871898;29;20061;-68
2022/07/09 19:01:52;;;;;;;5.97;5.47;;;;;;;22.40;53.96;96569.28;4871985;29;20064;-68
2022/07/09 19:04:20;;;;;;;5.57;5.20;;;;;;;22.77;53.54;96642.97;4871893;29;20063;-71
2022/07/09 19:06:47;;;;;;;9.80;6.35;;;;;;;21.22;54.38;96405.97;4870567;29;20080;-71
2022/07/09 19:09:23;;;;;;;5.55;4.88;;;;;;;22.36;55.98;96646.88;4871872;29;20072;-68
2022/07/09 19:11:50;;;;;;;4.88;4.57;;;;;;;22.39;54.96;96631.84;4871384;29;20368;-69
2022/07/09 19:14:18;;;;;;;6.32;4.95;;;;;;;22.40;55.12;96642.69;4871577;29;20071;-68
2022/07/09 21:09:58;;;;;;;4.13;3.87;;;;;;;21.61;48.35;96607.56;4875195;29;20447;-68
2022/07/09 21:12:26;;;;;;;4.88;4.38;;;;;;;21.66;47.96;96607.75;4873889;29;20057;-68
2022/07/09 21:14:53;;;;;;;10.23;6.13;;;;;;;21.70;48.43;96604.81;4873449;29;20057;-68
2022/07/09 21:20:07;;;;;;;3.90;3.70;;;;;;;21.75;48.38;96607.88;4877389;29;20048;-71
2022/07/09 21:22:34;;;;;;;4.18;3.88;;;;;;;21.42;48.16;96522.00;4892408;29;20421;-71
2022/07/09 22:09:55;;;;;;;4.50;4.17;;;;;;;22.18;48.75;96585.41;4870212;29;20087;-70
2022/07/09 22:12:23;;;;;;;4.70;4.28;;;;;;;22.23;49.03;96565.09;4873301;29;20297;-68
2022/07/09 22:14:50;;;;;;;4.72;4.43;;;;;;;22.18;48.72;96562.84;4871454;29;20487;-68
2022/07/09 22:17:17;;;;;;;4.63;4.18;;;;;;;21.90;49.51;96586.44;4872949;29;20057;-71
2022/07/09 22:19:44;;;;;;;5.18;4.68;;;;;;;21.84;50.17;96576.97;4872666;29;20081;-71
2022/07/09 22:22:12;;;;;;;6.53;3.90;;;;;;;22.05;48.91;96567.75;4891468;29;20057;-68
2022/07/09 23:09:59;;;;;;;4.30;4.00;;;;;;;21.45;50.88;96509.81;4868978;29;20072;-68
2022/07/09 23:12:26;;;;;;;4.25;3.72;;;;;;;21.78;51.04;96559.03;4871833;29;20056;-68
2022/07/09 23:14:53;;;;;;;4.10;3.90;;;;;;;21.78;51.32;96556.22;4871252;29;20073;-68
2022/07/09 23:17:21;;;;;;;4.38;3.88;;;;;;;21.76;51.81;96541.81;4871184;29;20512;-68
2022/07/09 23:19:48;;;;;;;4.00;3.70;;;;;;;21.76;51.44;96530.53;4872324;29;20064;-68
2022/07/09 23:22:16;;;;;;;3.80;3.60;;;;;;;21.72;51.27;96541.09;4889968;29;20048;-70
2022/07/09 23:29:36;;;;;;;;;;;;;;;;;;;;;
2022/07/09 23:54:01;;;;;;;3.78;3.58;;;;;;;21.49;53.59;96538.69;4885371;29;20508;-70
2022/07/09 23:56:28;;;;;;;4.63;4.32;;;;;;;21.01;53.71;96463.03;4873068;29;20135;-70
2022/07/09 23:58:55;;;;;;;4.55;4.15;;;;;;;21.56;53.49;96565.84;4873061;29;20463;-71
